Aeroporto :
LOGIN :

Iscrizione | Disclaimer

   EN    FR    IT 

 










Sommario :    VFR   VFR Marginale   IFR   IFR Intensivo   IFR Molto Intensivo
Visibilità : 
Base nubi : 
>= 8 km
>= 3000ft
5 / 8 km
1000 / 3000 ft
1500m / 5 km
500 / 1000 ft
800 / 1500m
200 / 500 ft
< 800m
< 200 ft
Simboli :   Temporali  Nebbia  Neve Forte  Precipitazioni Forti  Vento > 20 kt
SIGMETs :   Varie  Temporali  Ghiacco  Turbolenza  Onda orograficha  Ceneri Vulcaniche






- Altitudine del aeroporto : 1411 ft
- Codice IATA : SZG


LOWS - Salzburg

ULTIMO METAR :
  • 180420Z AUTO 15007KT CAVOK 16/14 Q1017 NOSIG

METARs OBSOLETI :
  • 180350Z AUTO 15007KT 9999 FEW001 16/14 Q1017 NOSIG
  • 180320Z AUTO 13007KT 9999 NSC 16/14 Q1017
  • 180250Z AUTO 14006KT 9999 NSC 16/15 Q1017
  • 180220Z AUTO 14007KT 9999 NCD 16/15 Q1018
  • 180150Z AUTO 16011KT 9999 NSC 16/15 Q1018
  • 180120Z AUTO 16010KT 9999 NSC 16/15 Q1018
  • 180050Z AUTO 15006KT 100V180 9999 NSC 16/15 Q1018
  • 180020Z AUTO 18012KT 9999 FEW017 17/16 Q1019
  • 172350Z AUTO 17006KT 9999 -SHRA //////CB FEW015 BKN080 17/15 Q1019 RESHRA

TAF TAF LOWS
Valido dal 18 a 00 ore il 19 a 00 ore UTC


172315Z 1800/1824 15006KT CAVOK TX30/1814Z TN16/1802Z
PROB30
TEMPO 1800/1802 29015G25KT SHRA FEW050CB SCT060
BECMG 1808/1810 02005KT 9999 FEW060
TEMPO 1812/1821 FEW050CB SCT060
PROB40
TEMPO 1814/1820 32015G30KT 4000 TSRA SCT030CB BKN050
BECMG 1819/1821 15005KT



MetMap, La meteo Aeronautica in un colpo d'occhio ! - Copyright ORBIFLY Dicembre 2007 - Disclaimer

ORBIFLY MET'MAP TEAM :

Programmazione e sviluppo : Alexandra Zaïnal
Concezione : Baudouin d'Aumeries
Supporto tecnico e logistico : Manuel Goepfert
Aiuto : Marc-Olivier Méhu
Aiuto per la traduzione : Arnaldo La Scala




FONTI E CREDITI :

   NOAA